createdAt,value
2023-02-15T00:01:05.682Z,12.2
2023-02-15T00:07:25.674Z,12.2
2023-02-15T00:13:48.646Z,12.4
2023-02-15T00:20:08.797Z,12.4
2023-02-15T00:26:31.643Z,11.4
2023-02-15T00:32:51.619Z,11.4
2023-02-15T00:39:14.594Z,16.7
2023-02-15T00:45:34.698Z,16.7
2023-02-15T00:51:57.527Z,11.5
2023-02-15T00:58:17.755Z,11.5
2023-02-15T01:04:40.558Z,11.2
2023-02-15T01:11:00.533Z,11.2
2023-02-15T01:17:23.612Z,9.9
2023-02-15T01:23:43.590Z,9.9
2023-02-15T01:30:06.556Z,12
2023-02-15T01:36:26.610Z,12
2023-02-15T01:42:49.512Z,11.6
2023-02-15T01:49:09.555Z,11.6
2023-02-15T01:55:32.577Z,13.3
2023-02-15T02:01:52.601Z,13.3
2023-02-15T02:08:15.561Z,12.9
2023-02-15T02:14:35.715Z,12.9
2023-02-15T02:20:58.649Z,12.4
2023-02-15T02:27:18.691Z,12.4
2023-02-15T02:33:41.680Z,10.8
2023-02-15T02:40:01.590Z,10.8
2023-02-15T02:46:24.513Z,15.8
2023-02-15T02:52:44.719Z,15.8
2023-02-15T02:59:07.597Z,17.4
2023-02-15T03:05:27.532Z,17.4
2023-02-15T03:11:50.575Z,11.3
2023-02-15T03:18:10.524Z,11.3
2023-02-15T03:24:33.639Z,11.6
2023-02-15T03:30:53.686Z,11.6
2023-02-15T03:37:16.519Z,13.4
2023-02-15T03:43:36.544Z,13.4
2023-02-15T03:49:59.512Z,12.2
2023-02-15T03:56:19.686Z,12.2
2023-02-15T04:02:42.768Z,9.6
2023-02-15T04:25:49.435Z,7.3
2023-02-15T04:32:09.572Z,7.3
2023-02-15T04:38:32.641Z,13.5
2023-02-15T04:44:52.532Z,13.5
2023-02-15T04:51:15.538Z,10.6
2023-02-15T04:57:35.475Z,10.6
2023-02-15T05:03:58.599Z,10.5
2023-02-15T05:10:18.763Z,10.5
2023-02-15T05:16:41.765Z,7.6
2023-02-15T05:23:02.833Z,7.6
2023-02-15T05:29:25.636Z,8.5
2023-02-15T05:35:45.713Z,8.5
2023-02-15T05:42:08.561Z,12.9
2023-02-15T05:48:28.542Z,12.9
2023-02-15T05:54:51.555Z,11.7
2023-02-15T06:01:11.519Z,11.7
2023-02-15T06:07:34.669Z,12.7
2023-02-15T06:13:54.704Z,12.7
2023-02-15T06:20:17.626Z,9.2
2023-02-15T06:26:37.640Z,9.2
2023-02-15T06:33:00.554Z,15.5
2023-02-15T06:39:20.576Z,15.5
2023-02-15T06:45:43.567Z,9.8
2023-02-15T06:52:03.525Z,9.8
2023-02-15T06:58:26.575Z,9.4
2023-02-15T07:04:46.555Z,9.4
2023-02-15T07:11:09.506Z,9.9
2023-02-15T07:17:37.053Z,9.9
2023-02-15T07:23:52.644Z,13.3
2023-02-15T07:30:12.675Z,13.3
2023-02-15T07:36:35.522Z,10.2
2023-02-15T07:42:55.942Z,10.2
2023-02-15T07:49:18.605Z,10.4
2023-02-15T07:55:38.570Z,10.4
2023-02-15T08:02:01.588Z,7.9
2023-02-15T08:08:21.486Z,7.9
2023-02-15T08:14:44.539Z,9.9
2023-02-15T08:21:04.554Z,9.9
2023-02-15T08:27:27.543Z,8.5
2023-02-15T08:33:47.581Z,8.5
2023-02-15T08:40:10.569Z,6.1
2023-02-15T08:46:30.548Z,6.1
2023-02-15T08:52:53.610Z,6.9
2023-02-15T08:59:13.528Z,6.9
2023-02-15T09:05:36.586Z,6.6
2023-02-15T09:11:59.448Z,6.6
2023-02-15T09:18:19.535Z,5.7
2023-02-15T09:34:26.357Z,6
2023-02-15T09:40:46.498Z,6
2023-02-15T09:47:09.528Z,12.2
2023-02-15T09:53:29.585Z,12.2
2023-02-15T09:59:52.652Z,12.2
2023-02-15T10:06:12.587Z,12.2
2023-02-15T10:12:36.925Z,7.3
2023-02-15T10:18:55.568Z,7.3
2023-02-15T10:25:18.618Z,6
2023-02-15T10:31:38.675Z,6
2023-02-15T10:38:01.567Z,7.1
2023-02-15T10:44:21.557Z,7.1
2023-02-15T10:50:44.627Z,3.9
2023-02-15T10:57:04.586Z,3.9
2023-02-15T11:03:27.548Z,7.2
2023-02-15T11:09:47.588Z,7.2
2023-02-15T11:16:10.617Z,8.7
2023-02-15T11:22:30.538Z,8.7
2023-02-15T11:28:53.670Z,6.4
2023-02-15T11:35:13.549Z,6.4
2023-02-15T11:41:36.524Z,10.3
2023-02-15T11:47:56.575Z,10.3
2023-02-15T11:54:19.584Z,6.6
2023-02-15T12:00:39.568Z,6.6
2023-02-15T12:07:02.789Z,7.8
2023-02-15T12:13:22.544Z,7.8
2023-02-15T12:19:45.575Z,6.6
2023-02-15T12:26:06.307Z,6.6
2023-02-15T12:32:29.576Z,7.4
2023-02-15T12:38:49.520Z,7.4
2023-02-15T12:45:19.158Z,8.1
2023-02-15T12:51:32.514Z,8.1
2023-02-15T12:57:55.513Z,4.1
2023-02-15T13:04:15.646Z,4.1
2023-02-15T13:10:38.546Z,10.8
2023-02-15T13:16:58.612Z,10.8
2023-02-15T13:23:21.590Z,7.4
2023-02-15T13:29:41.510Z,7.4
2023-02-15T13:36:04.546Z,6.9
2023-02-15T13:42:24.576Z,6.9
2023-02-15T13:48:51.222Z,8.1
2023-02-15T13:55:07.515Z,8.1
2023-02-15T14:01:30.712Z,8.7
2023-02-15T14:07:50.637Z,8.7
2023-02-15T14:14:13.581Z,6
2023-02-15T14:20:33.607Z,6
2023-02-15T14:26:56.509Z,7.1
2023-02-15T14:33:16.529Z,7.1
2023-02-15T14:39:39.560Z,8.8
2023-02-15T15:03:22.476Z,7
2023-02-15T15:09:42.486Z,7
2023-02-15T15:16:05.972Z,6.6
2023-02-15T15:22:25.562Z,6.6
2023-02-15T15:28:49.071Z,6.2
2023-02-15T15:35:08.530Z,6.2
2023-02-15T15:41:31.529Z,6.3
2023-02-15T15:47:58.852Z,6.3
2023-02-15T15:54:14.571Z,5
2023-02-15T16:00:34.625Z,5
2023-02-15T16:06:57.562Z,8.6
2023-02-15T16:13:17.544Z,8.6
2023-02-15T16:19:40.650Z,7.4
2023-02-15T16:26:00.833Z,7.4
2023-02-15T16:32:23.636Z,6
2023-02-15T16:38:43.638Z,6
2023-02-15T16:45:06.524Z,8.7
2023-02-15T16:51:28.543Z,8.7
2023-02-15T16:57:49.537Z,5.8
2023-02-15T17:04:09.593Z,5.8
2023-02-15T17:10:32.536Z,6.5
2023-02-15T17:16:52.657Z,6.5
2023-02-15T17:23:15.561Z,6.1
2023-02-15T17:29:35.596Z,6.1
2023-02-15T17:35:58.632Z,8.3
2023-02-15T17:42:18.588Z,8.3
2023-02-15T17:48:41.584Z,12.5
2023-02-15T17:55:01.662Z,12.5
2023-02-15T18:01:24.638Z,5.4
2023-02-15T18:07:44.581Z,5.4
2023-02-15T18:14:07.616Z,11
2023-02-15T18:20:27.622Z,11
2023-02-15T18:26:50.529Z,6.2
2023-02-15T18:33:10.595Z,6.2
2023-02-15T18:39:33.483Z,6.9
2023-02-15T18:45:53.565Z,6.9
2023-02-15T18:52:16.762Z,6.3
2023-02-15T18:58:36.509Z,6.3
2023-02-15T19:04:59.579Z,7.2
2023-02-15T19:11:19.634Z,7.2
2023-02-15T19:17:42.646Z,9.1
2023-02-15T19:24:02.595Z,9.1
2023-02-15T19:30:25.684Z,9.2
2023-02-15T19:36:45.579Z,9.2
2023-02-15T19:43:08.616Z,6.2
2023-02-15T19:49:28.537Z,6.2
2023-02-15T19:55:51.557Z,8.9
2023-02-15T20:18:22.907Z,10
2023-02-15T20:24:42.521Z,10
2023-02-15T20:31:05.914Z,9.2
2023-02-15T20:37:25.563Z,9.2
2023-02-15T20:43:48.567Z,12.7
2023-02-15T20:50:08.617Z,12.7
2023-02-15T20:56:33.495Z,10.1
2023-02-15T21:02:51.636Z,10.1
2023-02-15T21:09:14.546Z,9.7
2023-02-15T21:15:34.632Z,9.7
2023-02-15T21:21:57.668Z,10.9
2023-02-15T21:28:17.634Z,10.9
2023-02-15T21:34:40.613Z,6.7
2023-02-15T21:41:00.750Z,6.7
2023-02-15T21:47:23.582Z,6.1
2023-02-15T21:53:43.758Z,6.1
2023-02-15T22:00:06.618Z,10.2
2023-02-15T22:06:26.581Z,10.2
2023-02-15T22:12:49.680Z,10.4
2023-02-15T22:19:09.911Z,10.4
2023-02-15T22:25:32.823Z,13.6
2023-02-15T22:31:52.758Z,13.6
2023-02-15T22:38:15.571Z,8.2
2023-02-15T22:44:35.589Z,8.2
2023-02-15T22:50:58.523Z,10.2
2023-02-15T22:57:18.552Z,10.2
2023-02-15T23:22:52.552Z,23
2023-02-15T23:29:12.461Z,23
2023-02-15T23:35:35.522Z,23
2023-02-15T23:41:55.712Z,23
2023-02-15T23:48:18.657Z,9.7
2023-02-15T23:54:38.492Z,9.7
